createdAt,value
2017-09-24T00:01:35.174Z,32.10
2017-09-24T00:04:04.291Z,41.07
2017-09-24T00:06:32.651Z,39.80
2017-09-24T00:09:01.750Z,43.33
2017-09-24T00:11:30.860Z,33.40
2017-09-24T00:13:59.224Z,32.73
2017-09-24T00:16:28.324Z,34.58
2017-09-24T00:18:57.426Z,36.00
2017-09-24T00:21:26.561Z,35.67
2017-09-24T00:23:54.908Z,37.33
2017-09-24T00:26:24.019Z,33.35
2017-09-24T00:28:52.629Z,36.50
2017-09-24T00:31:20.967Z,37.87
2017-09-24T00:33:50.072Z,43.30
2017-09-24T00:36:19.197Z,35.47
2017-09-24T00:38:47.523Z,46.67
2017-09-24T00:41:15.859Z,35.93
2017-09-24T00:43:44.226Z,34.60
2017-09-24T00:46:12.556Z,35.03
2017-09-24T00:48:40.901Z,37.43
2017-09-24T00:51:09.272Z,32.50
2017-09-24T00:53:37.614Z,46.90
2017-09-24T00:56:05.944Z,31.00
2017-09-24T00:58:34.314Z,34.60
2017-09-24T01:01:02.648Z,32.35
2017-09-24T01:03:31.007Z,38.43
2017-09-24T01:05:59.339Z,33.63
2017-09-24T01:08:27.667Z,38.70
2017-09-24T01:10:56.032Z,39.93
2017-09-24T01:13:25.387Z,40.00
2017-09-24T01:15:54.495Z,35.67
2017-09-24T01:18:23.623Z,43.33
2017-09-24T01:20:51.959Z,41.87
2017-09-24T01:23:21.059Z,42.30
2017-09-24T01:25:50.178Z,44.73
2017-09-24T01:28:19.527Z,39.05
2017-09-24T01:30:47.856Z,37.50
2017-09-24T01:33:16.345Z,48.57
2017-09-24T01:35:44.803Z,46.47
2017-09-24T01:38:13.946Z,33.17
2017-09-24T01:40:42.391Z,34.80
2017-09-24T01:43:11.534Z,37.37
2017-09-24T01:45:39.900Z,40.73
2017-09-24T01:48:08.340Z,37.53
2017-09-24T01:50:37.503Z,37.80
2017-09-24T01:53:05.936Z,41.33
2017-09-24T01:55:34.450Z,34.17
2017-09-24T01:58:04.594Z,30.83
2017-09-24T02:00:33.010Z,39.50
2017-09-24T02:03:02.144Z,37.70
2017-09-24T02:05:30.475Z,43.30
2017-09-24T02:07:58.814Z,36.77
2017-09-24T02:10:27.175Z,48.23
2017-09-24T02:12:55.519Z,37.40
2017-09-24T02:15:23.856Z,30.03
2017-09-24T02:17:52.215Z,51.13
2017-09-24T02:20:20.551Z,35.25
2017-09-24T02:22:48.885Z,38.33
2017-09-24T02:25:17.255Z,31.07
2017-09-24T02:27:45.600Z,35.03
2017-09-24T02:30:13.940Z,39.60
2017-09-24T02:32:42.295Z,37.87
2017-09-24T02:35:10.632Z,33.93
2017-09-24T02:37:38.960Z,34.00
2017-09-24T02:40:07.316Z,32.90
2017-09-24T02:42:36.430Z,31.58
2017-09-24T02:45:05.534Z,33.37
2017-09-24T02:47:33.895Z,30.70
2017-09-24T02:50:03.012Z,27.73
2017-09-24T02:52:31.355Z,30.40
2017-09-24T02:54:59.720Z,32.90
2017-09-24T02:57:28.064Z,26.77
2017-09-24T02:59:56.400Z,38.00
2017-09-24T03:02:25.616Z,25.33
2017-09-24T03:04:54.714Z,37.37
2017-09-24T03:07:23.823Z,36.27
2017-09-24T03:09:52.184Z,34.03
2017-09-24T03:12:20.523Z,30.43
2017-09-24T03:14:48.860Z,33.93
2017-09-24T03:17:17.990Z,30.60
2017-09-24T03:19:46.345Z,23.57
2017-09-24T03:22:14.676Z,30.08
2017-09-24T03:24:43.061Z,36.35
2017-09-24T03:27:11.404Z,30.80
2017-09-24T03:29:39.740Z,29.80
2017-09-24T03:32:08.113Z,32.20
2017-09-24T03:34:36.452Z,28.15
2017-09-24T03:37:04.783Z,38.60
2017-09-24T03:39:33.912Z,33.20
2017-09-24T03:42:02.243Z,48.73
2017-09-24T03:44:30.601Z,28.73
2017-09-24T03:46:58.967Z,38.03
2017-09-24T03:49:27.318Z,33.77
2017-09-24T03:51:55.659Z,32.33
2017-09-24T03:54:24.015Z,35.90
2017-09-24T03:56:52.346Z,35.70
2017-09-24T03:59:21.451Z,33.53
2017-09-24T04:01:50.588Z,33.33
2017-09-24T04:04:18.924Z,28.93
2017-09-24T04:06:48.053Z,31.87
2017-09-24T04:09:16.453Z,38.13
2017-09-24T04:11:44.795Z,27.57
2017-09-24T04:14:13.890Z,29.10
2017-09-24T04:16:43.025Z,29.23
2017-09-24T04:19:11.358Z,35.00
2017-09-24T04:21:40.468Z,34.47
2017-09-24T04:24:09.589Z,37.90
2017-09-24T04:26:37.920Z,30.52
2017-09-24T04:29:06.252Z,35.53
2017-09-24T04:31:34.620Z,29.20
2017-09-24T04:34:02.962Z,38.97
2017-09-24T04:36:31.312Z,27.97
2017-09-24T04:38:59.688Z,38.03
2017-09-24T04:41:28.022Z,36.63
2017-09-24T04:43:57.123Z,31.93
2017-09-24T04:46:27.497Z,47.60
2017-09-24T04:48:55.831Z,43.83
2017-09-24T04:51:24.949Z,39.33
2017-09-24T04:53:53.321Z,36.93
2017-09-24T04:56:21.655Z,40.03
2017-09-24T04:58:49.999Z,34.47
2017-09-24T05:01:18.359Z,37.87
2017-09-24T05:03:46.696Z,41.97
2017-09-24T05:06:15.037Z,44.17
2017-09-24T05:08:43.406Z,44.77
2017-09-24T05:11:11.735Z,32.30
2017-09-24T05:13:40.068Z,39.47
2017-09-24T05:16:08.423Z,31.57
2017-09-24T05:18:37.523Z,42.47
2017-09-24T05:21:06.626Z,30.87
2017-09-24T05:23:35.749Z,36.90
2017-09-24T05:26:04.075Z,46.70
2017-09-24T05:28:32.413Z,30.50
2017-09-24T05:31:00.782Z,30.67
2017-09-24T05:33:29.125Z,29.07
2017-09-24T05:35:58.231Z,29.27
2017-09-24T05:38:27.355Z,28.27
2017-09-24T05:40:55.688Z,25.53
2017-09-24T05:43:24.025Z,32.30
2017-09-24T05:45:52.383Z,24.43
2017-09-24T05:48:21.486Z,24.67
2017-09-24T05:50:50.588Z,33.07
2017-09-24T05:53:18.948Z,32.57
2017-09-24T05:55:48.055Z,27.80
2017-09-24T05:58:17.151Z,31.40
2017-09-24T06:00:46.283Z,32.42
2017-09-24T06:03:14.618Z,34.67
2017-09-24T06:05:42.950Z,33.33
2017-09-24T06:08:11.321Z,24.00
2017-09-24T06:10:39.687Z,33.58
2017-09-24T06:13:08.031Z,25.90
2017-09-24T06:15:37.203Z,31.17
2017-09-24T06:18:05.543Z,29.63
2017-09-24T06:20:33.882Z,31.50
2017-09-24T06:23:02.255Z,28.30
2017-09-24T06:25:30.586Z,24.73
2017-09-24T06:27:58.919Z,33.13
2017-09-24T06:30:27.289Z,29.43
2017-09-24T06:32:55.642Z,31.03
2017-09-24T06:35:23.976Z,33.63
2017-09-24T06:37:53.120Z,32.57
2017-09-24T06:40:21.450Z,36.43
2017-09-24T06:42:50.759Z,38.65
2017-09-24T06:45:19.214Z,32.60
2017-09-24T06:47:47.559Z,37.00
2017-09-24T06:50:15.894Z,30.77
2017-09-24T06:52:44.259Z,34.13
2017-09-24T06:55:12.604Z,30.15
2017-09-24T06:57:40.936Z,40.90
2017-09-24T07:00:09.295Z,38.47
2017-09-24T07:02:37.627Z,35.13
2017-09-24T07:05:05.987Z,34.30
2017-09-24T07:07:35.146Z,37.07
2017-09-24T07:10:03.471Z,33.30
2017-09-24T07:12:32.577Z,41.30
2017-09-24T07:15:01.703Z,46.60
2017-09-24T07:17:30.044Z,39.67
2017-09-24T07:19:59.138Z,35.70
2017-09-24T07:22:28.272Z,28.60
2017-09-24T07:24:56.599Z,36.40
2017-09-24T07:27:24.936Z,40.90
2017-09-24T07:29:53.304Z,41.13
2017-09-24T07:32:21.644Z,34.23
2017-09-24T07:34:49.983Z,37.58
2017-09-24T07:37:18.566Z,45.47
2017-09-24T07:39:46.921Z,36.33
2017-09-24T07:42:15.251Z,36.57
2017-09-24T07:44:43.621Z,42.38
2017-09-24T07:47:11.955Z,33.60
2017-09-24T07:49:41.055Z,35.07
2017-09-24T07:52:10.182Z,39.80
2017-09-24T07:54:38.523Z,36.33
2017-09-24T07:57:07.653Z,34.80
2017-09-24T07:59:36.041Z,40.20
2017-09-24T08:02:04.372Z,35.93
2017-09-24T08:04:32.707Z,28.38
2017-09-24T08:07:01.077Z,30.73
2017-09-24T08:09:29.416Z,35.20
2017-09-24T08:11:58.519Z,36.10
2017-09-24T08:14:27.655Z,38.43
2017-09-24T08:16:55.990Z,34.57
2017-09-24T08:19:24.322Z,32.27
2017-09-24T08:21:52.683Z,29.40
2017-09-24T08:24:21.023Z,33.10
2017-09-24T08:26:49.359Z,36.03
2017-09-24T08:29:17.724Z,36.77
2017-09-24T08:31:46.053Z,36.73
2017-09-24T08:34:14.391Z,31.07
2017-09-24T08:36:42.751Z,34.22
2017-09-24T08:39:11.852Z,33.30
2017-09-24T08:41:40.194Z,29.60
2017-09-24T08:44:08.561Z,33.23
2017-09-24T08:46:36.904Z,31.47
2017-09-24T08:49:05.245Z,31.60
2017-09-24T08:51:33.602Z,28.45
2017-09-24T08:54:01.932Z,26.00
2017-09-24T08:56:30.268Z,29.33
2017-09-24T08:58:58.923Z,26.73
2017-09-24T09:01:27.254Z,26.60
2017-09-24T09:03:56.378Z,28.47
2017-09-24T09:06:24.757Z,25.55
2017-09-24T09:08:53.099Z,23.73
2017-09-24T09:11:21.437Z,21.33
2017-09-24T09:13:49.807Z,22.30
2017-09-24T09:16:18.139Z,26.50
2017-09-24T09:18:46.504Z,23.38
2017-09-24T09:21:14.895Z,24.10
2017-09-24T09:23:43.236Z,22.97
2017-09-24T09:26:11.602Z,23.60
2017-09-24T09:28:39.960Z,23.20
2017-09-24T09:31:09.067Z,23.23
2017-09-24T09:33:38.189Z,23.10
2017-09-24T09:36:06.560Z,26.30
2017-09-24T09:38:34.895Z,30.43
2017-09-24T09:41:03.240Z,25.73
2017-09-24T09:43:45.558Z,24.43
2017-09-24T09:59:55.711Z,21.87
2017-09-24T10:02:24.048Z,20.77
2017-09-24T10:04:53.164Z,19.70
2017-09-24T10:07:39.243Z,21.50
2017-09-24T10:10:16.855Z,19.58
2017-09-24T10:12:45.988Z,20.77
2017-09-24T10:15:14.323Z,17.90
2017-09-24T10:17:44.103Z,20.03
2017-09-24T10:20:12.468Z,18.77
2017-09-24T10:22:41.662Z,18.35
2017-09-24T10:25:10.016Z,17.90
2017-09-24T10:27:38.380Z,15.90
2017-09-24T10:30:25.112Z,18.00
2017-09-24T10:32:53.476Z,14.13
2017-09-24T10:35:22.578Z,15.70
2017-09-24T10:37:51.824Z,16.40
2017-09-24T10:40:20.208Z,18.87
2017-09-24T10:42:48.551Z,14.02
2017-09-24T10:45:16.917Z,18.23
2017-09-24T10:47:46.026Z,13.27
2017-09-24T10:50:14.355Z,15.03
2017-09-24T10:52:42.687Z,20.07
2017-09-24T10:55:11.057Z,16.03
2017-09-24T10:57:40.152Z,12.57
2017-09-24T11:00:08.498Z,13.63
2017-09-24T11:02:36.863Z,13.18
2017-09-24T11:05:05.191Z,13.33
2017-09-24T11:07:34.285Z,11.80
2017-09-24T11:10:03.419Z,10.73
2017-09-24T11:12:31.755Z,12.70
2017-09-24T11:15:00.082Z,12.17
2017-09-24T11:17:28.464Z,10.27
2017-09-24T11:19:56.803Z,10.07
2017-09-24T11:22:25.899Z,12.00
2017-09-24T11:24:55.038Z,12.15
2017-09-24T11:27:23.367Z,11.77
2017-09-24T11:29:51.707Z,11.40
2017-09-24T11:32:20.076Z,10.43
2017-09-24T11:34:48.402Z,9.13
2017-09-24T11:37:16.739Z,8.73
2017-09-24T11:39:45.092Z,8.17
2017-09-24T11:42:14.194Z,10.40
2017-09-24T11:44:42.527Z,10.90
2017-09-24T11:47:10.884Z,8.17
2017-09-24T11:49:39.231Z,11.37
2017-09-24T11:52:07.566Z,9.40
2017-09-24T11:54:36.055Z,8.80
2017-09-24T11:57:04.396Z,9.60
2017-09-24T11:59:32.736Z,9.03
2017-09-24T12:02:01.096Z,7.13
2017-09-24T12:04:29.456Z,9.03
2017-09-24T12:06:57.795Z,11.45
2017-09-24T12:09:26.152Z,7.30
2017-09-24T12:11:55.263Z,5.83
2017-09-24T12:14:24.440Z,6.55
2017-09-24T12:16:52.909Z,7.45
2017-09-24T12:19:21.339Z,6.90
2017-09-24T12:21:49.701Z,6.50
2017-09-24T12:24:18.810Z,5.67
2017-09-24T12:26:47.931Z,5.87
2017-09-24T12:29:16.287Z,6.20
2017-09-24T12:31:45.434Z,5.83
2017-09-24T12:34:13.899Z,5.40
2017-09-24T12:36:42.231Z,5.47
2017-09-24T12:39:10.624Z,5.55
2017-09-24T12:41:39.715Z,7.10
2017-09-24T12:44:08.817Z,4.40
2017-09-24T12:46:37.943Z,5.80
2017-09-24T12:49:06.272Z,5.30
2017-09-24T12:51:34.614Z,5.43
2017-09-24T12:54:02.979Z,5.83
2017-09-24T12:56:31.307Z,4.50
2017-09-24T12:58:59.655Z,7.10
2017-09-24T13:01:28.008Z,7.33
2017-09-24T13:03:57.106Z,4.80
2017-09-24T13:06:26.202Z,4.03
2017-09-24T13:08:55.336Z,4.87
2017-09-24T13:11:23.673Z,4.53
2017-09-24T13:13:52.763Z,5.07
2017-09-24T13:16:21.125Z,5.60
2017-09-24T13:18:49.455Z,5.27
2017-09-24T13:21:17.786Z,3.83
2017-09-24T13:23:46.143Z,4.00
2017-09-24T13:26:14.511Z,3.30
2017-09-24T13:28:42.862Z,3.63
2017-09-24T13:31:11.956Z,3.57
2017-09-24T13:33:41.054Z,5.50
2017-09-24T13:36:10.192Z,4.43
2017-09-24T13:38:38.528Z,4.03
2017-09-24T13:41:07.620Z,3.80
2017-09-24T13:43:36.767Z,6.93
2017-09-24T13:46:05.099Z,3.70
2017-09-24T13:48:34.204Z,4.40
2017-09-24T13:51:03.336Z,3.90
2017-09-24T13:53:31.670Z,4.07
2017-09-24T13:56:00.781Z,4.03
2017-09-24T13:58:29.911Z,2.53
2017-09-24T14:00:58.239Z,2.90
2017-09-24T14:03:26.591Z,3.40
2017-09-24T14:05:55.721Z,4.83
2017-09-24T14:08:24.836Z,4.03
2017-09-24T14:10:53.939Z,3.70
2017-09-24T14:13:23.123Z,4.43
2017-09-24T14:15:52.228Z,3.10
2017-09-24T14:18:21.328Z,3.00
2017-09-24T14:20:51.376Z,2.40
2017-09-24T14:23:19.722Z,2.57
2017-09-24T14:25:48.827Z,2.07
2017-09-24T14:28:17.956Z,2.27
2017-09-24T14:30:46.308Z,3.20
2017-09-24T14:33:15.403Z,2.37
2017-09-24T14:35:44.533Z,4.50
2017-09-24T14:38:12.874Z,2.00
2017-09-24T14:40:41.972Z,1.50
2017-09-24T14:43:11.100Z,1.60
2017-09-24T14:45:39.428Z,2.00
2017-09-24T14:48:07.784Z,2.50
2017-09-24T14:50:36.113Z,3.37
2017-09-24T14:53:05.214Z,2.67
2017-09-24T14:55:34.354Z,2.20
2017-09-24T14:58:02.687Z,3.12
2017-09-24T15:00:31.787Z,1.87
2017-09-24T15:03:00.908Z,4.53
2017-09-24T15:05:29.264Z,1.47
2017-09-24T15:07:58.364Z,2.53
2017-09-24T15:10:27.459Z,2.10
2017-09-24T15:12:56.605Z,1.55
2017-09-24T15:15:24.956Z,1.43
2017-09-24T15:17:53.300Z,3.10
2017-09-24T15:20:21.796Z,2.43
2017-09-24T15:22:52.177Z,1.23
2017-09-24T15:25:20.545Z,1.50
2017-09-24T15:27:48.876Z,1.97
2017-09-24T15:30:17.238Z,1.63
2017-09-24T15:32:45.564Z,1.03
2017-09-24T15:35:14.698Z,1.70
2017-09-24T15:37:43.045Z,1.70
2017-09-24T15:40:11.387Z,2.43
2017-09-24T15:42:39.752Z,2.27
2017-09-24T15:45:08.091Z,2.75
2017-09-24T15:47:36.440Z,1.43
2017-09-24T15:50:05.577Z,1.20
2017-09-24T15:52:33.937Z,1.20
2017-09-24T15:55:03.033Z,1.20
2017-09-24T15:57:32.163Z,2.13
2017-09-24T16:00:00.499Z,1.20
2017-09-24T16:02:29.623Z,2.40
2017-09-24T16:04:57.951Z,3.90
2017-09-24T16:07:26.285Z,2.90
2017-09-24T16:09:54.645Z,1.70
2017-09-24T16:12:23.762Z,4.73
2017-09-24T16:14:52.107Z,2.50
2017-09-24T16:17:20.472Z,2.57
2017-09-24T16:19:48.819Z,2.60
2017-09-24T16:22:17.196Z,1.80
2017-09-24T16:24:45.536Z,3.40
2017-09-24T16:27:14.630Z,1.43
2017-09-24T16:29:43.779Z,1.07
2017-09-24T16:32:12.112Z,3.10
2017-09-24T16:34:40.469Z,1.40
2017-09-24T16:37:08.800Z,1.08
2017-09-24T16:39:37.143Z,1.40
2017-09-24T16:42:05.505Z,1.80
2017-09-24T16:44:33.835Z,1.27
2017-09-24T16:47:02.168Z,1.65
2017-09-24T16:49:30.537Z,2.00
2017-09-24T16:51:58.871Z,1.00
2017-09-24T16:54:27.978Z,1.47
2017-09-24T16:56:56.533Z,1.20
2017-09-24T16:59:24.867Z,1.67
2017-09-24T17:01:53.208Z,0.80
2017-09-24T17:04:22.346Z,1.27
2017-09-24T17:06:50.676Z,1.27
2017-09-24T17:09:19.007Z,1.30
2017-09-24T17:11:47.368Z,1.13
2017-09-24T17:14:15.699Z,1.60
2017-09-24T17:16:44.069Z,2.10
2017-09-24T17:19:12.406Z,1.27
2017-09-24T17:21:40.775Z,1.87
2017-09-24T17:24:09.887Z,6.13
2017-09-24T17:26:38.230Z,4.67
2017-09-24T17:29:06.601Z,4.70
2017-09-24T17:31:34.980Z,3.20
2017-09-24T17:34:03.318Z,2.07
2017-09-24T17:36:31.660Z,2.27
2017-09-24T17:39:00.792Z,2.30
2017-09-24T17:41:29.138Z,3.00
2017-09-24T17:43:58.279Z,2.40
2017-09-24T17:46:26.626Z,1.60
2017-09-24T17:48:55.770Z,1.77
2017-09-24T17:51:24.117Z,2.50
2017-09-24T17:53:52.464Z,2.53
2017-09-24T17:56:20.833Z,1.47
2017-09-24T17:58:49.184Z,2.13
2017-09-24T18:01:17.533Z,3.87
2017-09-24T18:03:45.910Z,3.47
2017-09-24T18:06:15.033Z,2.20
2017-09-24T18:08:43.366Z,4.13
2017-09-24T18:11:11.881Z,1.70
2017-09-24T18:13:40.207Z,1.60
2017-09-24T18:16:08.597Z,1.90
2017-09-24T18:18:36.943Z,2.07
2017-09-24T18:21:05.287Z,3.08
2017-09-24T18:23:34.425Z,1.48
2017-09-24T18:26:02.758Z,2.30
2017-09-24T18:28:31.855Z,1.37
2017-09-24T18:31:00.985Z,2.00
2017-09-24T18:33:29.331Z,1.67
2017-09-24T18:35:58.431Z,1.93
2017-09-24T18:38:27.586Z,4.50
2017-09-24T18:40:55.924Z,5.83
2017-09-24T18:43:25.046Z,5.40
2017-09-24T18:45:53.408Z,5.97
2017-09-24T18:48:21.757Z,4.90
2017-09-24T18:50:50.129Z,3.03
2017-09-24T18:53:18.536Z,2.60
2017-09-24T18:55:47.653Z,2.47
2017-09-24T18:58:15.982Z,1.60
2017-09-24T19:00:44.347Z,1.60
2017-09-24T19:03:12.694Z,2.10
2017-09-24T19:05:41.036Z,2.20
2017-09-24T19:08:09.388Z,2.80
2017-09-24T19:10:37.731Z,3.03
2017-09-24T19:13:06.065Z,6.70
2017-09-24T19:15:34.430Z,2.47
2017-09-24T19:18:02.765Z,2.70
2017-09-24T19:20:31.886Z,1.77
2017-09-24T19:23:00.250Z,1.60
2017-09-24T19:25:28.615Z,2.20
2017-09-24T19:27:57.724Z,1.70
2017-09-24T19:30:26.859Z,2.43
2017-09-24T19:32:55.210Z,3.20
2017-09-24T19:35:23.574Z,1.83
2017-09-24T19:37:52.683Z,2.00
2017-09-24T19:40:21.030Z,2.50
2017-09-24T19:42:49.388Z,4.77
2017-09-24T19:45:17.749Z,2.10
2017-09-24T19:47:46.092Z,3.37
2017-09-24T19:50:15.227Z,3.03
2017-09-24T19:52:43.571Z,3.17
2017-09-24T19:55:12.686Z,2.42
2017-09-24T19:57:41.063Z,2.80
2017-09-24T20:00:09.405Z,4.17
2017-09-24T20:02:37.792Z,2.53
2017-09-24T20:05:06.127Z,4.43
2017-09-24T20:07:34.481Z,3.17
2017-09-24T20:10:03.584Z,4.27
2017-09-24T20:12:31.930Z,3.07
2017-09-24T20:15:00.293Z,4.07
2017-09-24T20:17:28.630Z,2.90
2017-09-24T20:19:56.968Z,3.27
2017-09-24T20:22:25.323Z,4.47
2017-09-24T20:24:54.429Z,3.03
2017-09-24T20:27:22.756Z,3.05
2017-09-24T20:29:51.888Z,4.50
2017-09-24T20:32:20.244Z,3.50
2017-09-24T20:34:48.615Z,3.13
2017-09-24T20:37:17.041Z,4.05
2017-09-24T20:39:45.391Z,4.77
2017-09-24T20:42:13.765Z,4.07
2017-09-24T20:44:42.102Z,6.20
2017-09-24T20:47:10.469Z,3.60
2017-09-24T20:49:38.807Z,3.60
2017-09-24T20:52:07.147Z,4.57
2017-09-24T20:54:35.513Z,4.43
2017-09-24T20:57:03.875Z,4.13
2017-09-24T20:59:32.223Z,4.33
2017-09-24T21:02:00.592Z,3.53
2017-09-24T21:04:29.688Z,4.10
2017-09-24T21:06:58.787Z,4.63
2017-09-24T21:09:27.918Z,4.80
2017-09-24T21:11:56.252Z,6.03
2017-09-24T21:14:24.591Z,4.78
2017-09-24T21:16:52.952Z,4.67
2017-09-24T21:19:21.280Z,8.20
2017-09-24T21:21:49.628Z,7.47
2017-09-24T21:24:18.035Z,7.80
2017-09-24T21:26:46.377Z,8.70
2017-09-24T21:29:14.738Z,5.55
2017-09-24T21:31:43.117Z,4.97
2017-09-24T21:34:11.460Z,7.57
2017-09-24T21:36:39.794Z,6.93
2017-09-24T21:39:08.159Z,5.20
2017-09-24T21:41:37.257Z,5.47
2017-09-24T21:44:05.665Z,7.75
2017-09-24T21:46:33.998Z,7.60
2017-09-24T21:49:03.103Z,4.03
2017-09-24T21:51:32.245Z,6.17
2017-09-24T21:54:00.595Z,5.27
2017-09-24T21:56:28.964Z,6.33
2017-09-24T21:58:58.072Z,6.00
2017-09-24T22:01:26.442Z,5.80
2017-09-24T22:03:55.548Z,6.30
2017-09-24T22:06:24.646Z,5.70
2017-09-24T22:08:53.768Z,5.57
2017-09-24T22:11:22.108Z,7.00
2017-09-24T22:13:51.240Z,4.90
2017-09-24T22:16:19.584Z,9.23
2017-09-24T22:18:47.938Z,6.17
2017-09-24T22:21:16.304Z,5.10
2017-09-24T22:23:45.404Z,6.67
2017-09-24T22:26:13.757Z,5.10
2017-09-24T22:28:42.123Z,5.50
2017-09-24T22:31:11.327Z,5.70
2017-09-24T22:33:40.445Z,4.45
2017-09-24T22:36:08.807Z,6.27
2017-09-24T22:38:37.160Z,4.40
2017-09-24T22:41:05.509Z,6.53
2017-09-24T22:43:33.875Z,5.00
2017-09-24T22:46:02.227Z,5.97
2017-09-24T22:48:30.565Z,7.32
2017-09-24T22:50:58.945Z,5.07
2017-09-24T23:08:44.148Z,5.40
2017-09-24T23:11:14.296Z,7.57
2017-09-24T23:13:43.402Z,4.57
2017-09-24T23:16:11.760Z,4.50
2017-09-24T23:18:40.873Z,5.83
2017-09-24T23:21:09.224Z,7.20
2017-09-24T23:23:37.583Z,6.03
2017-09-24T23:26:05.919Z,5.07
2017-09-24T23:28:34.267Z,6.87
2017-09-24T23:31:02.636Z,4.70
2017-09-24T23:33:30.985Z,5.80
2017-09-24T23:35:59.335Z,4.87
2017-09-24T23:38:28.465Z,5.43
2017-09-24T23:40:56.807Z,5.73
2017-09-24T23:43:25.903Z,6.65
2017-09-24T23:45:55.037Z,5.97
2017-09-24T23:48:23.375Z,4.47
2017-09-24T23:50:52.476Z,4.10
2017-09-24T23:53:21.600Z,6.03
2017-09-24T23:55:49.931Z,5.00
2017-09-24T23:58:18.275Z,4.50
